.
WxDataArchive / Data Records for 2010-11-25
2010-11-24 November 2010 2010-11-26

Data Records for Thursday, 25 November 2010

Time	Temp	Chill	HIndex	Humid	Dewpt	 Wind 	HiWind	WindDir	Rain 	Barom 
-----	----	-----	------	-----	-----	------	------	-------	-----	----- 
00:00	33.7	30.0	33.7	93	31.9	4	7	90	0.02	29.912 
00:05	33.7	29.1	33.7	93	31.9	5	10	90	0.02	29.912 
00:10	33.8	30.2	33.8	94	32.3	4	10	90	0.01	29.912 
00:15	33.8	30.2	33.8	94	32.3	4	8	90	0.02	29.910 
00:20	34.0	34.0	34.0	94	32.5	3	7	90	0.02	29.910 
00:25	34.0	34.0	34.0	94	32.5	2	6	112	0.02	29.910 
00:30	34.1	34.1	34.1	94	32.6	3	6	112	0.02	29.918 
00:35	34.1	30.5	34.1	94	32.6	4	9	90	0.02	29.918 
00:40	34.1	30.5	34.1	94	32.6	4	9	90	0.03	29.918 
00:45	34.1	29.5	34.1	94	32.6	5	11	90	0.02	29.881 
00:50	34.1	29.5	34.1	94	32.6	5	10	90	0.02	29.881 
00:55	34.1	28.0	34.1	94	32.6	7	13	90	0.02	29.881 
01:00	34.1	28.7	34.1	95	32.8	6	12	90	0.02	29.862 
01:05	34.1	28.7	34.1	95	32.8	6	12	90	0.01	29.862 
01:10	34.3	28.3	34.3	95	33.0	7	15	90	0.02	29.862 
01:15	34.3	29.8	34.3	95	33.0	5	10	90	0.01	29.861 
01:20	34.3	29.0	34.3	95	33.0	6	13	90	0.01	29.861 
01:25	34.4	29.1	34.4	95	33.1	6	13	90	0.01	29.861 
01:30	34.4	29.9	34.4	95	33.1	5	9	90	0.00	29.847 
01:35	34.4	29.1	34.4	95	33.1	6	13	90	0.02	29.847 
01:40	34.4	28.4	34.4	95	33.1	7	14	90	0.01	29.847 
01:45	34.6	30.1	34.6	95	33.3	5	11	90	0.00	29.821 
01:50	34.6	30.1	34.6	95	33.3	5	14	112	0.01	29.821 
01:55	34.6	30.1	34.6	95	33.3	5	9	90	0.01	29.821 
02:00	34.6	30.1	34.6	95	33.3	5	11	90	0.02	29.821 
02:05	34.7	30.2	34.7	95	33.4	5	10	90	0.02	29.821 
02:10	34.7	28.8	34.7	95	33.4	7	12	90	0.02	29.821 
02:15	34.9	31.4	34.9	95	33.6	4	10	90	0.02	29.798 
02:20	34.9	29.7	34.9	95	33.6	6	10	112	0.01	29.798 
02:25	34.9	30.5	34.9	95	33.6	5	13	112	0.01	29.798 
02:30	34.9	31.4	34.9	95	33.6	4	13	90	0.02	29.814 
02:35	35.0	31.5	35.0	95	33.7	4	10	90	0.02	29.814 
02:40	35.0	30.6	35.0	95	33.7	5	10	112	0.04	29.814 
02:45	35.0	35.0	35.0	95	33.7	3	9	90	0.04	29.816 
02:50	35.2	31.8	35.2	95	33.9	4	10	112	0.03	29.816 
02:55	35.2	35.2	35.2	96	34.2	3	7	112	0.02	29.816 
03:00	35.2	35.2	35.2	96	34.2	2	6	90	0.02	29.820 
03:05	35.3	31.9	35.3	96	34.3	4	9	90	0.02	29.820 
03:10	35.3	35.3	35.3	96	34.3	3	9	112	0.01	29.820 
03:15	35.5	32.1	35.5	96	34.5	4	10	90	0.02	29.806 
03:20	35.5	31.2	35.5	96	34.5	5	9	112	0.01	29.806 
03:25	35.6	32.2	35.6	99	35.3	4	10	112	0.01	29.806 
03:30	35.6	30.5	35.6	96	34.6	6	12	90	0.01	29.782 
03:35	35.6	31.3	35.6	96	34.6	5	10	112	0.01	29.782 
03:40	35.8	35.8	35.8	96	34.8	3	7	90	0.01	29.782 
03:45	35.8	35.8	35.8	96	34.8	3	7	90	0.01	29.776 
03:50	35.9	35.9	35.9	96	34.9	3	9	90	0.02	29.776 
03:55	36.0	36.0	36.0	96	35.0	3	7	90	0.02	29.776 
04:00	36.0	36.0	36.0	96	35.0	2	5	90	0.01	29.769 
04:05	36.0	36.0	36.0	96	35.0	2	6	90	0.00	29.769 
04:10	36.2	36.2	36.2	96	35.2	2	5	90	0.01	29.769 
04:15	36.2	36.2	36.2	96	35.2	1	6	112	0.00	29.781 
04:20	36.3	36.3	36.3	96	35.3	1	3	112	0.00	29.781 
04:25	36.3	36.3	36.3	96	35.3	2	4	90	0.01	29.781 
04:30	36.5	36.5	36.5	96	35.5	2	6	90	0.00	29.777 
04:35	36.5	36.5	36.5	96	35.5	2	5	90	0.01	29.777 
04:40	36.6	36.6	36.6	96	35.6	2	5	90	0.01	29.777 
04:45	36.6	36.6	36.6	96	35.6	3	6	90	0.01	29.776 
04:50	36.8	36.8	36.8	96	35.8	2	6	68	0.01	29.776 
04:55	36.8	36.8	36.8	96	35.8	1	4	90	0.02	29.776 
05:00	36.8	36.8	36.8	96	35.8	2	5	90	0.03	29.783 
05:05	36.9	36.9	36.9	96	35.9	1	3	90	0.01	29.783 
05:10	36.9	36.9	36.9	96	35.9	1	3	90	0.01	29.783 
05:15	36.9	36.9	36.9	96	35.9	2	4	90	0.00	29.777 
05:20	36.9	36.9	36.9	96	35.9	2	5	90	0.00	29.777 
05:25	36.9	36.9	36.9	96	35.9	1	3	90	0.00	29.777 
05:30	37.0	37.0	37.0	96	36.0	2	4	90	0.00	29.774 
05:35	37.2	37.2	37.2	96	36.2	1	3	90	0.00	29.774 
05:40	37.2	37.2	37.2	96	36.2	1	4	90	0.00	29.774 
05:45	37.3	37.3	37.3	96	36.3	1	2	90	0.01	29.764 
05:50	37.5	37.5	37.5	96	36.5	1	3	90	0.00	29.764 
05:55	37.6	37.6	37.6	96	36.6	2	4	90	0.00	29.764 
06:00	37.9	34.9	37.9	96	36.9	4	9	112	0.00	29.714 
06:05	38.2	35.2	38.2	96	37.2	4	12	112	0.00	29.714 
06:10	38.5	38.5	38.5	96	37.5	2	8	90	0.00	29.714 
06:15	38.6	38.6	38.6	96	37.6	1	4	90	0.00	29.713 
06:20	38.8	38.8	38.8	96	37.8	1	4	90	0.00	29.713 
06:25	39.1	39.1	39.1	96	38.1	1	4	292	0.00	29.713 
06:30	39.2	39.2	39.2	96	38.2	0	1	292	0.00	29.756 
06:35	39.2	39.2	39.2	96	38.2	0	1	292	0.00	29.756 
06:40	39.3	39.3	39.3	96	38.3	1	2	292	0.00	29.756 
06:45	39.3	39.3	39.3	97	38.5	1	3	90	0.00	29.762 
06:50	39.5	39.5	39.5	97	38.7	0	1	90	0.00	29.762 
06:55	39.5	39.5	39.5	97	38.7	0	3	90	0.00	29.762 
07:00	39.6	39.6	39.6	97	38.8	1	3	112	0.00	29.748 
07:05	39.8	39.8	39.8	97	39.0	1	3	135	0.00	29.748 
07:10	39.9	39.9	39.9	97	39.1	1	4	135	0.00	29.748 
07:15	39.9	39.9	39.9	97	39.1	1	3	135	0.00	29.755 
07:20	40.1	40.1	40.1	97	39.3	1	4	112	0.00	29.755 
07:25	40.1	40.1	40.1	97	39.3	1	4	112	0.00	29.755 
07:30	40.2	40.2	40.2	97	39.4	1	4	112	0.00	29.746 
07:35	40.2	40.2	40.2	97	39.4	2	5	112	0.00	29.746 
07:40	40.2	40.2	40.2	97	39.4	1	3	112	0.00	29.746 
07:45	40.2	40.2	40.2	97	39.4	1	3	112	0.00	29.715 
07:50	40.3	40.3	40.3	97	39.5	1	4	90	0.00	29.715 
07:55	40.3	40.3	40.3	97	39.5	0	2	90	0.00	29.715 
08:00	40.3	40.3	40.3	97	39.5	1	3	112	0.00	29.716 
08:05	40.5	40.5	40.5	97	39.7	1	4	315	0.00	29.716 
08:10	40.5	40.5	40.5	97	39.7	0	1	315	0.00	29.716 
08:15	40.6	40.6	40.6	97	39.8	0	3	315	0.00	29.738 
08:20	40.6	40.6	40.6	97	39.8	0	3	315	0.00	29.738 
08:25	40.6	40.6	40.6	97	39.8	1	3	315	0.00	29.738 
08:30	40.8	40.8	40.8	97	40.0	0	2	315	0.00	29.760 
08:35	40.8	40.8	40.8	97	40.0	0	2	315	0.00	29.760 
08:40	40.8	40.8	40.8	97	40.0	0	2	315	0.00	29.760 
08:45	40.8	40.8	40.8	97	40.0	0	2	315	0.00	29.733 
08:50	40.8	40.8	40.8	97	40.0	1	3	315	0.00	29.733 
08:55	40.8	40.8	40.8	97	40.0	0	3	315	0.00	29.733 
09:00	40.9	40.9	40.9	97	40.1	1	3	112	0.00	29.715 
09:05	40.9	40.9	40.9	97	40.1	1	4	112	0.00	29.715 
09:10	40.9	40.9	40.9	97	40.1	2	4	112	0.00	29.715 
09:15	40.9	40.9	40.9	97	40.1	2	6	90	0.00	29.713 
09:20	41.1	41.1	41.1	97	40.3	1	4	112	0.00	29.713 
09:25	41.2	41.2	41.2	97	40.4	2	4	90	0.00	29.713 
09:30	41.5	41.5	41.5	97	40.7	1	5	90	0.00	29.713 
09:35	41.8	41.8	41.8	97	41.0	2	5	90	0.00	29.713 
09:40	42.1	42.1	42.1	97	41.3	2	6	112	0.00	29.713 
09:45	42.3	42.3	42.3	97	41.5	1	4	68	0.01	29.685 
09:50	42.8	42.8	42.8	97	42.0	1	4	90	0.00	29.685 
09:55	43.2	43.2	43.2	97	42.4	1	4	292	0.00	29.685 
10:00	43.6	43.6	43.6	97	42.8	1	2	292	0.00	29.714 
10:05	44.2	44.2	44.2	97	43.4	1	4	248	0.00	29.714 
10:10	44.5	44.5	44.5	97	43.7	0	1	248	0.00	29.714 
10:15	44.8	44.8	44.8	97	44.0	0	1	248	0.00	29.713 
10:20	44.9	44.9	44.9	97	44.1	0	0	---	0.00	29.713 
10:25	45.1	45.1	45.1	97	44.3	0	1	248	0.00	29.713 
10:30	45.4	45.4	45.4	97	44.6	0	2	248	0.00	29.717 
10:35	45.4	45.4	45.4	97	44.6	1	2	338	0.00	29.717 
10:40	45.4	45.4	45.4	97	44.6	0	2	338	0.00	29.717 
10:45	45.2	45.2	45.2	97	44.4	1	5	338	0.00	29.728 
10:50	45.2	45.2	45.2	97	44.4	0	1	338	0.00	29.728 
10:55	45.1	45.1	45.1	97	44.3	0	2	338	0.00	29.728 
11:00	44.9	44.9	44.9	97	44.1	1	3	338	0.00	29.743 
11:05	44.8	44.8	44.8	97	44.0	1	2	338	0.00	29.743 
11:10	44.6	44.6	44.6	97	43.8	1	3	338	0.00	29.743 
11:15	44.5	44.5	44.5	97	43.7	1	5	338	0.00	29.736 
11:20	44.3	44.3	44.3	97	43.5	1	3	338	0.00	29.736 
11:25	44.1	44.1	44.1	97	43.3	1	3	338	0.00	29.736 
11:30	44.1	44.1	44.1	97	43.3	0	3	338	0.00	29.728 
11:35	43.9	43.9	43.9	97	43.1	1	3	338	0.00	29.728 
11:40	43.9	43.9	43.9	97	43.1	0	1	338	0.00	29.728 
11:45	43.8	43.8	43.8	97	43.0	1	2	338	0.00	29.736 
11:50	43.8	43.8	43.8	97	43.0	0	3	338	0.00	29.736 
11:55	43.8	43.8	43.8	97	43.0	0	1	338	0.00	29.736 
12:00	43.9	43.9	43.9	97	43.1	0	0	---	0.00	29.723 
12:05	43.9	43.9	43.9	97	43.1	0	1	338	0.00	29.723 
12:10	43.9	43.9	43.9	97	43.1	0	0	---	0.00	29.723 
12:15	44.1	44.1	44.1	97	43.3	0	1	338	0.00	29.710 
12:20	44.1	44.1	44.1	97	43.3	0	1	338	0.00	29.710 
12:25	44.1	44.1	44.1	97	43.3	0	0	---	0.00	29.710 
12:30	44.2	44.2	44.2	97	43.4	0	0	---	0.00	29.708 
12:35	44.3	44.3	44.3	97	43.5	0	0	---	0.00	29.708 
12:40	44.5	44.5	44.5	97	43.7	0	0	---	0.00	29.708 
12:45	44.5	44.5	44.5	97	43.7	0	1	338	0.00	29.706 
12:50	44.5	44.5	44.5	97	43.7	0	2	338	0.00	29.706 
12:55	44.5	44.5	44.5	97	43.7	0	1	338	0.00	29.706 
13:00	44.6	44.6	44.6	97	43.8	0	0	---	0.00	29.706 
13:05	44.6	44.6	44.6	97	43.8	0	0	---	0.00	29.706 
13:10	44.8	44.8	44.8	97	44.0	0	0	---	0.00	29.706 
13:15	44.8	44.8	44.8	97	44.0	0	0	---	0.00	29.706 
13:20	44.8	44.8	44.8	97	44.0	0	0	---	0.00	29.706 
13:25	44.9	44.9	44.9	97	44.1	0	0	---	0.00	29.706 
13:30	44.9	44.9	44.9	97	44.1	0	0	---	0.00	29.688 
13:35	44.9	44.9	44.9	97	44.1	0	0	---	0.00	29.688 
13:40	45.1	45.1	45.1	97	44.3	0	0	---	0.00	29.688 
13:45	45.1	45.1	45.1	97	44.3	0	0	---	0.00	29.685 
13:50	45.2	45.2	45.2	97	44.4	0	0	---	0.00	29.685 
13:55	45.2	45.2	45.2	97	44.4	0	0	---	0.00	29.685 
14:00	45.2	45.2	45.2	97	44.4	0	0	---	0.00	29.677 
14:05	45.4	45.4	45.4	97	44.6	0	0	---	0.00	29.677 
14:10	45.4	45.4	45.4	97	44.6	0	0	---	0.01	29.677 
14:15	45.5	45.5	45.5	97	44.7	0	0	---	0.00	29.667 
14:20	45.5	45.5	45.5	97	44.7	0	0	---	0.00	29.667 
14:25	45.5	45.5	45.5	97	44.7	0	0	---	0.00	29.667 
14:30	45.5	45.5	45.5	97	44.7	0	1	338	0.00	29.665 
14:35	45.5	45.5	45.5	97	44.7	0	1	338	0.00	29.665 
14:40	45.5	45.5	45.5	97	44.7	0	0	---	0.00	29.665 
14:45	45.7	45.7	45.7	97	44.9	0	1	338	0.00	29.668 
14:50	45.7	45.7	45.7	97	44.9	0	1	338	0.00	29.668 
14:55	45.7	45.7	45.7	97	44.9	0	0	---	0.00	29.668 
15:00	45.7	45.7	45.7	97	44.9	0	0	---	0.00	29.660 
15:05	45.7	45.7	45.7	97	44.9	0	1	338	0.00	29.660 
15:10	45.7	45.7	45.7	97	44.9	0	1	338	0.00	29.660 
15:15	45.7	45.7	45.7	97	44.9	0	0	---	0.01	29.656 
15:20	45.7	45.7	45.7	97	44.9	0	0	---	0.00	29.656 
15:25	45.7	45.7	45.7	97	44.9	0	0	---	0.01	29.656 
15:30	45.5	45.5	45.5	97	44.7	0	0	---	0.01	29.644 
15:35	45.5	45.5	45.5	97	44.7	0	0	---	0.01	29.644 
15:40	45.5	45.5	45.5	97	44.7	0	0	---	0.00	29.644 
15:45	45.5	45.5	45.5	97	44.7	0	1	338	0.01	29.637 
15:50	45.5	45.5	45.5	97	44.7	0	0	---	0.01	29.637 
15:55	45.5	45.5	45.5	97	44.7	0	1	338	0.01	29.637 
16:00	45.5	45.5	45.5	97	44.7	0	1	338	0.01	29.660 
16:05	45.5	45.5	45.5	97	44.7	0	2	338	0.02	29.660 
16:10	45.5	45.5	45.5	97	44.7	0	1	338	0.00	29.660 
16:15	45.5	45.5	45.5	97	44.7	0	1	338	0.01	29.664 
16:20	45.4	45.4	45.4	97	44.6	1	2	338	0.01	29.664 
16:25	45.4	45.4	45.4	97	44.6	1	2	338	0.00	29.664 
16:30	45.2	45.2	45.2	97	44.4	1	3	338	0.01	29.662 
16:35	45.2	45.2	45.2	97	44.4	0	2	338	0.00	29.662 
16:40	45.1	45.1	45.1	97	44.3	1	4	338	0.00	29.662 
16:45	44.6	44.6	44.6	97	43.8	1	3	338	0.01	29.664 
16:50	44.3	44.3	44.3	97	43.5	1	4	248	0.00	29.664 
16:55	44.2	44.2	44.2	97	43.4	2	3	248	0.01	29.664 
17:00	44.1	44.1	44.1	97	43.3	1	3	315	0.00	29.674 
17:05	43.9	43.9	43.9	97	43.1	2	4	315	0.01	29.674 
17:10	43.8	43.8	43.8	97	43.0	1	2	0	0.01	29.674 
17:15	43.6	43.6	43.6	97	42.8	1	3	225	0.01	29.680 
17:20	43.3	43.3	43.3	97	42.5	1	4	315	0.00	29.680 
17:25	43.2	43.2	43.2	97	42.4	1	3	315	0.01	29.680 
17:30	43.2	43.2	43.2	97	42.4	2	4	315	0.01	29.677 
17:35	43.1	43.1	43.1	97	42.3	2	4	270	0.01	29.677 
17:40	43.1	43.1	43.1	97	42.3	1	4	270	0.01	29.677 
17:45	43.1	43.1	43.1	97	42.3	1	3	270	0.00	29.675 
17:50	43.1	43.1	43.1	97	42.3	1	3	292	0.00	29.675 
17:55	42.9	42.9	42.9	97	42.1	2	3	292	0.01	29.675 
18:00	42.9	42.9	42.9	97	42.1	1	3	292	0.00	29.685 
18:05	42.8	42.8	42.8	97	42.0	1	3	248	0.01	29.685 
18:10	42.8	42.8	42.8	97	42.0	1	3	248	0.00	29.685 
18:15	42.6	42.6	42.6	97	41.8	0	2	248	0.00	29.682 
18:20	42.6	42.6	42.6	97	41.8	1	3	248	0.01	29.682 
18:25	42.5	42.5	42.5	97	41.7	0	2	248	0.01	29.682 
18:30	42.3	42.3	42.3	97	41.5	1	3	248	0.00	29.676 
18:35	42.3	42.3	42.3	97	41.5	1	4	248	0.01	29.676 
18:40	42.2	42.2	42.2	97	41.4	1	4	248	0.01	29.676 
18:45	42.1	42.1	42.1	97	41.3	1	2	270	0.00	29.679 
18:50	41.9	41.9	41.9	97	41.1	1	3	270	0.00	29.679 
18:55	41.8	41.8	41.8	97	41.0	2	4	270	0.01	29.679 
19:00	41.6	41.6	41.6	97	40.8	2	4	315	0.00	29.692 
19:05	41.6	41.6	41.6	97	40.8	2	5	315	0.01	29.692 
19:10	41.6	41.6	41.6	97	40.8	2	4	270	0.00	29.692 
19:15	41.3	41.3	41.3	97	40.5	2	4	270	0.01	29.689 
19:20	41.1	41.1	41.1	97	40.3	3	4	270	0.00	29.689 
19:25	40.9	40.9	40.9	97	40.1	3	5	270	0.00	29.689 
19:30	40.9	40.9	40.9	97	40.1	2	4	248	0.00	29.697 
19:35	40.8	40.8	40.8	97	40.0	2	5	270	0.00	29.697 
19:40	40.8	40.8	40.8	97	40.0	2	4	270	0.01	29.697 
19:45	40.6	40.6	40.6	97	39.8	3	6	315	0.00	29.703 
19:50	40.6	40.6	40.6	97	39.8	2	4	270	0.01	29.703 
19:55	40.3	37.7	40.3	97	39.5	4	6	270	0.00	29.703 
20:00	40.2	37.5	40.2	97	39.4	4	7	270	0.00	29.704 
20:05	39.9	39.9	39.9	97	39.1	3	6	270	0.01	29.704 
20:10	39.6	36.9	39.6	97	38.8	4	8	270	0.00	29.704 
20:15	39.5	39.5	39.5	97	38.7	3	7	315	0.00	29.701 
20:20	39.2	36.4	39.2	97	38.4	4	9	270	0.00	29.701 
20:25	38.5	34.7	38.5	97	37.7	5	10	270	0.01	29.701 
20:30	37.6	33.7	37.6	96	36.6	5	9	270	0.01	29.709 
20:35	37.2	34.1	37.2	96	36.2	4	10	270	0.00	29.709 
20:40	37.0	37.0	37.0	96	36.0	3	5	248	0.00	29.709 
20:45	37.0	37.0	37.0	96	36.0	3	6	248	0.01	29.711 
20:50	36.9	36.9	36.9	96	35.9	3	7	315	0.00	29.711 
20:55	36.9	36.9	36.9	96	35.9	2	5	270	0.00	29.711 
21:00	36.9	36.9	36.9	96	35.9	3	6	248	0.00	29.722 
21:05	36.6	36.6	36.6	96	35.6	3	6	270	0.00	29.722 
21:10	36.5	36.5	36.5	96	35.5	3	6	270	0.00	29.722 
21:15	36.2	31.2	36.2	96	35.2	6	11	270	0.00	29.723 
21:20	36.0	32.7	36.0	96	35.0	4	7	270	0.00	29.723 
21:25	35.9	32.6	35.9	96	34.9	4	6	270	0.00	29.723 
21:30	35.8	32.5	35.8	96	34.8	4	6	270	0.00	29.730 
21:35	35.5	32.1	35.5	96	34.5	4	9	270	0.00	29.730 
21:40	35.3	31.0	35.3	96	34.3	5	9	270	0.00	29.730 
21:45	35.2	31.8	35.2	96	34.2	4	9	270	0.00	29.753 
21:50	34.7	31.2	34.7	95	33.4	4	9	270	0.00	29.753 
21:55	34.6	31.1	34.6	95	33.3	4	9	270	0.00	29.753 
22:00	34.7	34.7	34.7	94	33.2	3	6	270	0.00	29.764 
22:05	34.6	31.1	34.6	94	33.1	4	7	270	0.00	29.764 
22:10	34.3	30.7	34.3	93	32.5	4	9	270	0.00	29.764 
22:15	33.7	29.1	33.7	92	31.6	5	13	270	0.00	29.758 
22:20	33.4	29.7	33.4	89	30.5	4	11	270	0.00	29.758 
22:25	33.4	33.4	33.4	86	29.7	3	9	292	0.00	29.758 
22:30	33.2	33.2	33.2	83	28.6	3	11	315	0.00	29.756 
22:35	33.2	33.2	33.2	81	28.0	3	5	248	0.00	29.756 
22:40	33.1	29.3	33.1	78	27.0	4	8	270	0.00	29.756 
22:45	33.1	29.3	33.1	77	26.7	4	7	270	0.00	29.792 
22:50	32.9	32.9	32.9	76	26.2	3	7	315	0.00	29.792 
22:55	32.8	32.8	32.8	76	26.1	3	7	292	0.00	29.792 
23:00	32.8	32.8	32.8	77	26.4	2	4	248	0.00	29.786 
23:05	32.8	32.8	32.8	78	26.7	2	4	292	0.00	29.786 
23:10	32.5	32.5	32.5	77	26.1	2	5	270	0.00	29.786 
23:15	32.2	32.2	32.2	72	24.2	3	9	270	0.00	29.796 
23:20	32.2	32.2	32.2	71	23.9	2	4	270	0.00	29.796 
23:25	32.1	32.1	32.1	70	23.4	3	7	270	0.00	29.796 
23:30	32.1	28.2	32.1	66	22.0	4	7	270	0.00	29.804 
23:35	31.9	31.9	31.9	64	21.1	3	7	270	0.00	29.804 
23:40	31.9	31.9	31.9	63	20.8	3	7	270	0.00	29.804 
23:45	31.8	31.8	31.8	62	20.3	3	6	270	0.00	29.815 
23:50	31.8	31.8	31.8	65	21.4	2	8	270	0.00	29.815 
23:55	31.6	31.6	31.6	65	21.2	3	7	270	0.00	29.815 

CoCoRaHS
IN-AL-39
A2 Web Hosting
Creative Commons License
GoDaddy
search engine by freefind advanced

loaded 2018-11-17 19:24:57 • last modified 2010-11-18 10:43:29
Privacy PolicyDisclaimer
• wx.awcolley.com is powered by PmWiki v.2002016 •
• all content (unless otherwise noted) © 2018 A W Colley